Terminal Aerodrome Forecast
Issued by NWS Sioux Falls, SD

Home | Current Version | Previous Version | Graphics & Text | Print | Product List | Glossary On
Versions: 1 2 3 4 5 6 7 8 9 10 11 12 13 14 15
000
FTUS43 KFSD 010526
TAFSUX
TAF
KSUX 010526Z 0106/0206 36017G20KT P6SM -RA OVC009
     FM010800 35017KT 4SM -RASN OVC008
     FM011400 32018KT P6SM VCSH OVC008
     FM011800 32020G28KT P6SM OVC015
     FM012100 32017G25KT P6SM BKN040
     FM020200 30007KT P6SM SCT200=

USA.gov is the U.S. government's official web portal to all federal, state and local government web resources and services.